sensor_id;sensor_type;location;lat;lon;timestamp;P1;durP1;ratioP1;P2;durP2;ratioP2
10963;SDS011;5534;48.784;9.190;2023-08-06T00:00:08;2.92;;;2.58;;
10963;SDS011;5534;48.784;9.190;2023-08-06T00:02:34;4.32;;;2.42;;
10963;SDS011;5534;48.784;9.190;2023-08-06T00:05:00;2.60;;;2.33;;
10963;SDS011;5534;48.784;9.190;2023-08-06T00:07:27;2.83;;;2.40;;
10963;SDS011;5534;48.784;9.190;2023-08-06T00:09:54;3.63;;;2.53;;
10963;SDS011;5534;48.784;9.190;2023-08-06T00:12:19;3.03;;;2.55;;
10963;SDS011;5534;48.784;9.190;2023-08-06T00:14:45;3.10;;;2.50;;
10963;SDS011;5534;48.784;9.190;2023-08-06T00:17:14;4.47;;;2.67;;
10963;SDS011;5534;48.784;9.190;2023-08-06T00:19:40;4.10;;;2.40;;
10963;SDS011;5534;48.784;9.190;2023-08-06T00:22:06;3.72;;;2.72;;
10963;SDS011;5534;48.784;9.190;2023-08-06T00:24:32;3.28;;;2.88;;
10963;SDS011;5534;48.784;9.190;2023-08-06T00:26:58;3.67;;;2.38;;
10963;SDS011;5534;48.784;9.190;2023-08-06T00:29:23;2.85;;;2.33;;
10963;SDS011;5534;48.784;9.190;2023-08-06T00:31:49;3.75;;;2.55;;
10963;SDS011;5534;48.784;9.190;2023-08-06T00:34:15;2.53;;;2.33;;
10963;SDS011;5534;48.784;9.190;2023-08-06T00:36:40;2.53;;;2.33;;
10963;SDS011;5534;48.784;9.190;2023-08-06T00:39:06;2.63;;;2.25;;
10963;SDS011;5534;48.784;9.190;2023-08-06T00:41:32;4.25;;;2.55;;
10963;SDS011;5534;48.784;9.190;2023-08-06T00:43:58;2.42;;;2.22;;
10963;SDS011;5534;48.784;9.190;2023-08-06T00:46:24;2.38;;;2.00;;
10963;SDS011;5534;48.784;9.190;2023-08-06T00:48:50;3.65;;;2.45;;
10963;SDS011;5534;48.784;9.190;2023-08-06T00:51:16;3.65;;;2.40;;
10963;SDS011;5534;48.784;9.190;2023-08-06T00:53:42;2.97;;;2.35;;
10963;SDS011;5534;48.784;9.190;2023-08-06T00:56:08;3.28;;;2.20;;
10963;SDS011;5534;48.784;9.190;2023-08-06T00:58:35;3.10;;;2.60;;
10963;SDS011;5534;48.784;9.190;2023-08-06T01:01:01;2.45;;;1.83;;
10963;SDS011;5534;48.784;9.190;2023-08-06T01:03:27;3.38;;;1.92;;
10963;SDS011;5534;48.784;9.190;2023-08-06T01:05:53;2.90;;;1.98;;
10963;SDS011;5534;48.784;9.190;2023-08-06T01:13:42;2.30;;;2.00;;
10963;SDS011;5534;48.784;9.190;2023-08-06T01:16:15;5.25;;;2.10;;
10963;SDS011;5534;48.784;9.190;2023-08-06T01:18:42;3.75;;;1.90;;
10963;SDS011;5534;48.784;9.190;2023-08-06T01:21:12;2.55;;;1.63;;
10963;SDS011;5534;48.784;9.190;2023-08-06T01:23:38;2.78;;;1.80;;
10963;SDS011;5534;48.784;9.190;2023-08-06T01:31:27;1.58;;;1.48;;
10963;SDS011;5534;48.784;9.190;2023-08-06T01:33:58;1.95;;;1.58;;
10963;SDS011;5534;48.784;9.190;2023-08-06T01:36:24;2.47;;;1.70;;
10963;SDS011;5534;48.784;9.190;2023-08-06T01:38:54;2.40;;;1.67;;
10963;SDS011;5534;48.784;9.190;2023-08-06T01:41:25;2.70;;;1.83;;
10963;SDS011;5534;48.784;9.190;2023-08-06T01:43:51;1.90;;;1.55;;
10963;SDS011;5534;48.784;9.190;2023-08-06T01:46:16;2.47;;;1.60;;
10963;SDS011;5534;48.784;9.190;2023-08-06T01:48:42;2.00;;;1.60;;
10963;SDS011;5534;48.784;9.190;2023-08-06T01:51:08;1.67;;;1.58;;
10963;SDS011;5534;48.784;9.190;2023-08-06T01:53:34;1.83;;;1.60;;
10963;SDS011;5534;48.784;9.190;2023-08-06T01:56:00;1.80;;;1.60;;
10963;SDS011;5534;48.784;9.190;2023-08-06T01:58:25;1.88;;;1.67;;
10963;SDS011;5534;48.784;9.190;2023-08-06T02:00:51;1.70;;;1.60;;
10963;SDS011;5534;48.784;9.190;2023-08-06T02:03:17;1.70;;;1.45;;
10963;SDS011;5534;48.784;9.190;2023-08-06T02:05:46;2.00;;;1.77;;
10963;SDS011;5534;48.784;9.190;2023-08-06T02:08:11;1.90;;;1.42;;
10963;SDS011;5534;48.784;9.190;2023-08-06T02:10:37;2.30;;;1.67;;
10963;SDS011;5534;48.784;9.190;2023-08-06T02:13:03;3.35;;;1.35;;
10963;SDS011;5534;48.784;9.190;2023-08-06T02:15:28;2.83;;;1.50;;
10963;SDS011;5534;48.784;9.190;2023-08-06T02:17:55;1.90;;;1.60;;
10963;SDS011;5534;48.784;9.190;2023-08-06T02:20:20;3.42;;;1.60;;
10963;SDS011;5534;48.784;9.190;2023-08-06T02:22:46;1.73;;;1.45;;
10963;SDS011;5534;48.784;9.190;2023-08-06T02:25:12;2.88;;;1.42;;
10963;SDS011;5534;48.784;9.190;2023-08-06T02:27:38;2.78;;;1.65;;
10963;SDS011;5534;48.784;9.190;2023-08-06T02:30:04;1.42;;;1.33;;
10963;SDS011;5534;48.784;9.190;2023-08-06T02:32:30;3.13;;;1.58;;
10963;SDS011;5534;48.784;9.190;2023-08-06T02:34:57;2.88;;;1.83;;
10963;SDS011;5534;48.784;9.190;2023-08-06T02:37:23;2.28;;;1.60;;
10963;SDS011;5534;48.784;9.190;2023-08-06T02:39:48;2.60;;;1.58;;
10963;SDS011;5534;48.784;9.190;2023-08-06T02:42:14;2.60;;;1.58;;
10963;SDS011;5534;48.784;9.190;2023-08-06T02:44:40;1.63;;;1.30;;
10963;SDS011;5534;48.784;9.190;2023-08-06T02:47:05;4.53;;;1.60;;
10963;SDS011;5534;48.784;9.190;2023-08-06T02:49:31;1.70;;;1.42;;
10963;SDS011;5534;48.784;9.190;2023-08-06T02:51:57;3.72;;;1.40;;
10963;SDS011;5534;48.784;9.190;2023-08-06T02:54:25;1.58;;;1.48;;
10963;SDS011;5534;48.784;9.190;2023-08-06T02:56:50;3.17;;;1.52;;
10963;SDS011;5534;48.784;9.190;2023-08-06T02:59:16;2.90;;;1.58;;
10963;SDS011;5534;48.784;9.190;2023-08-06T03:01:42;2.55;;;1.60;;
10963;SDS011;5534;48.784;9.190;2023-08-06T03:04:08;1.83;;;1.20;;
10963;SDS011;5534;48.784;9.190;2023-08-06T03:06:33;3.05;;;1.52;;
10963;SDS011;5534;48.784;9.190;2023-08-06T03:08:59;2.25;;;1.52;;
10963;SDS011;5534;48.784;9.190;2023-08-06T03:11:25;1.48;;;1.38;;
10963;SDS011;5534;48.784;9.190;2023-08-06T03:13:50;2.83;;;1.75;;
10963;SDS011;5534;48.784;9.190;2023-08-06T03:16:16;1.80;;;1.48;;
10963;SDS011;5534;48.784;9.190;2023-08-06T03:18:42;1.90;;;1.55;;
10963;SDS011;5534;48.784;9.190;2023-08-06T03:21:07;2.47;;;1.25;;
10963;SDS011;5534;48.784;9.190;2023-08-06T03:23:33;1.52;;;1.42;;
10963;SDS011;5534;48.784;9.190;2023-08-06T03:26:02;1.88;;;1.30;;
10963;SDS011;5534;48.784;9.190;2023-08-06T03:28:28;1.88;;;1.52;;
10963;SDS011;5534;48.784;9.190;2023-08-06T03:31:03;2.38;;;1.60;;
10963;SDS011;5534;48.784;9.190;2023-08-06T03:33:29;1.60;;;1.33;;
10963;SDS011;5534;48.784;9.190;2023-08-06T03:35:55;2.63;;;1.60;;
10963;SDS011;5534;48.784;9.190;2023-08-06T03:38:21;2.00;;;1.40;;
10963;SDS011;5534;48.784;9.190;2023-08-06T03:40:48;1.65;;;1.25;;
10963;SDS011;5534;48.784;9.190;2023-08-06T03:43:14;2.65;;;1.30;;
10963;SDS011;5534;48.784;9.190;2023-08-06T03:45:41;2.08;;;1.10;;
10963;SDS011;5534;48.784;9.190;2023-08-06T03:48:08;1.95;;;1.73;;
10963;SDS011;5534;48.784;9.190;2023-08-06T03:50:34;1.98;;;1.20;;
10963;SDS011;5534;48.784;9.190;2023-08-06T03:53:00;2.08;;;1.40;;
10963;SDS011;5534;48.784;9.190;2023-08-06T03:55:26;1.83;;;1.30;;
10963;SDS011;5534;48.784;9.190;2023-08-06T03:57:52;1.70;;;1.42;;
10963;SDS011;5534;48.784;9.190;2023-08-06T04:00:18;2.25;;;1.15;;
10963;SDS011;5534;48.784;9.190;2023-08-06T04:02:44;1.73;;;1.33;;
10963;SDS011;5534;48.784;9.190;2023-08-06T04:05:10;1.45;;;1.15;;
10963;SDS011;5534;48.784;9.190;2023-08-06T04:07:36;2.08;;;1.23;;
10963;SDS011;5534;48.784;9.190;2023-08-06T04:10:02;2.28;;;1.65;;
10963;SDS011;5534;48.784;9.190;2023-08-06T04:12:29;2.10;;;1.27;;
10963;SDS011;5534;48.784;9.190;2023-08-06T04:14:56;4.88;;;1.40;;
10963;SDS011;5534;48.784;9.190;2023-08-06T04:17:23;2.17;;;1.40;;
10963;SDS011;5534;48.784;9.190;2023-08-06T04:19:50;1.67;;;1.38;;
10963;SDS011;5534;48.784;9.190;2023-08-06T04:22:17;2.25;;;1.60;;
10963;SDS011;5534;48.784;9.190;2023-08-06T04:24:44;4.50;;;1.67;;
10963;SDS011;5534;48.784;9.190;2023-08-06T04:27:11;2.25;;;1.60;;
10963;SDS011;5534;48.784;9.190;2023-08-06T04:29:37;2.25;;;1.52;;
10963;SDS011;5534;48.784;9.190;2023-08-06T04:32:06;2.33;;;1.70;;
10963;SDS011;5534;48.784;9.190;2023-08-06T04:34:34;2.97;;;1.70;;
10963;SDS011;5534;48.784;9.190;2023-08-06T04:37:01;2.17;;;1.77;;
10963;SDS011;5534;48.784;9.190;2023-08-06T04:39:27;2.20;;;1.38;;
10963;SDS011;5534;48.784;9.190;2023-08-06T04:41:53;2.03;;;1.50;;
10963;SDS011;5534;48.784;9.190;2023-08-06T04:44:18;1.77;;;1.40;;
10963;SDS011;5534;48.784;9.190;2023-08-06T04:46:45;3.90;;;1.67;;
10963;SDS011;5534;48.784;9.190;2023-08-06T04:49:11;1.70;;;1.60;;
10963;SDS011;5534;48.784;9.190;2023-08-06T04:51:37;2.85;;;1.73;;
10963;SDS011;5534;48.784;9.190;2023-08-06T04:54:02;1.95;;;1.70;;
10963;SDS011;5534;48.784;9.190;2023-08-06T04:56:28;2.17;;;1.50;;
10963;SDS011;5534;48.784;9.190;2023-08-06T04:58:54;2.40;;;1.63;;
10963;SDS011;5534;48.784;9.190;2023-08-06T05:01:20;2.08;;;1.60;;
10963;SDS011;5534;48.784;9.190;2023-08-06T05:03:46;4.03;;;1.45;;
10963;SDS011;5534;48.784;9.190;2023-08-06T05:06:12;2.28;;;1.50;;
10963;SDS011;5534;48.784;9.190;2023-08-06T05:08:38;2.05;;;1.52;;
10963;SDS011;5534;48.784;9.190;2023-08-06T05:11:04;2.20;;;1.17;;
10963;SDS011;5534;48.784;9.190;2023-08-06T05:13:30;2.35;;;1.50;;
10963;SDS011;5534;48.784;9.190;2023-08-06T05:15:55;2.38;;;1.20;;
10963;SDS011;5534;48.784;9.190;2023-08-06T05:18:21;1.50;;;1.00;;
10963;SDS011;5534;48.784;9.190;2023-08-06T05:20:47;1.38;;;1.00;;
10963;SDS011;5534;48.784;9.190;2023-08-06T05:23:13;1.48;;;1.00;;
10963;SDS011;5534;48.784;9.190;2023-08-06T05:25:39;1.67;;;0.85;;
10963;SDS011;5534;48.784;9.190;2023-08-06T05:28:04;2.58;;;1.00;;
10963;SDS011;5534;48.784;9.190;2023-08-06T05:30:30;3.17;;;0.85;;
10963;SDS011;5534;48.784;9.190;2023-08-06T05:32:56;1.48;;;0.82;;
10963;SDS011;5534;48.784;9.190;2023-08-06T05:35:23;1.30;;;0.95;;
10963;SDS011;5534;48.784;9.190;2023-08-06T05:37:52;2.92;;;1.00;;
10963;SDS011;5534;48.784;9.190;2023-08-06T05:40:18;0.70;;;0.63;;
10963;SDS011;5534;48.784;9.190;2023-08-06T05:42:44;0.95;;;0.77;;
10963;SDS011;5534;48.784;9.190;2023-08-06T05:45:09;1.40;;;0.80;;
10963;SDS011;5534;48.784;9.190;2023-08-06T05:47:35;2.38;;;1.10;;
10963;SDS011;5534;48.784;9.190;2023-08-06T05:50:01;2.90;;;0.93;;
10963;SDS011;5534;48.784;9.190;2023-08-06T05:52:27;1.02;;;0.73;;
10963;SDS011;5534;48.784;9.190;2023-08-06T05:54:52;1.48;;;0.80;;
10963;SDS011;5534;48.784;9.190;2023-08-06T05:57:20;2.20;;;1.10;;
10963;SDS011;5534;48.784;9.190;2023-08-06T05:59:45;1.63;;;1.00;;
10963;SDS011;5534;48.784;9.190;2023-08-06T06:02:11;1.50;;;0.70;;
10963;SDS011;5534;48.784;9.190;2023-08-06T06:04:37;1.25;;;0.93;;
10963;SDS011;5534;48.784;9.190;2023-08-06T06:07:03;0.95;;;0.60;;
10963;SDS011;5534;48.784;9.190;2023-08-06T06:09:29;1.60;;;0.60;;
10963;SDS011;5534;48.784;9.190;2023-08-06T06:11:54;0.88;;;0.57;;
10963;SDS011;5534;48.784;9.190;2023-08-06T06:14:20;2.25;;;0.70;;
10963;SDS011;5534;48.784;9.190;2023-08-06T06:16:46;2.83;;;0.45;;
10963;SDS011;5534;48.784;9.190;2023-08-06T06:19:12;1.67;;;0.70;;
10963;SDS011;5534;48.784;9.190;2023-08-06T06:21:38;1.40;;;0.50;;
10963;SDS011;5534;48.784;9.190;2023-08-06T06:24:05;2.50;;;0.60;;
10963;SDS011;5534;48.784;9.190;2023-08-06T06:26:31;0.82;;;0.50;;
10963;SDS011;5534;48.784;9.190;2023-08-06T06:28:57;1.23;;;0.50;;
10963;SDS011;5534;48.784;9.190;2023-08-06T06:31:23;1.20;;;0.52;;
10963;SDS011;5534;48.784;9.190;2023-08-06T06:33:49;0.77;;;0.50;;
10963;SDS011;5534;48.784;9.190;2023-08-06T06:36:15;1.50;;;0.60;;
10963;SDS011;5534;48.784;9.190;2023-08-06T06:38:41;0.52;;;0.43;;
10963;SDS011;5534;48.784;9.190;2023-08-06T06:41:07;0.93;;;0.60;;
10963;SDS011;5534;48.784;9.190;2023-08-06T06:43:33;1.92;;;0.50;;
10963;SDS011;5534;48.784;9.190;2023-08-06T06:45:59;0.60;;;0.50;;
10963;SDS011;5534;48.784;9.190;2023-08-06T06:48:26;1.02;;;0.50;;
10963;SDS011;5534;48.784;9.190;2023-08-06T06:50:53;1.27;;;0.60;;
10963;SDS011;5534;48.784;9.190;2023-08-06T06:53:18;1.05;;;0.50;;
10963;SDS011;5534;48.784;9.190;2023-08-06T06:55:44;0.60;;;0.40;;
10963;SDS011;5534;48.784;9.190;2023-08-06T06:58:10;0.95;;;0.52;;
10963;SDS011;5534;48.784;9.190;2023-08-06T07:00:36;1.20;;;0.80;;
10963;SDS011;5534;48.784;9.190;2023-08-06T07:03:02;0.60;;;0.47;;
10963;SDS011;5534;48.784;9.190;2023-08-06T07:05:28;0.90;;;0.50;;
10963;SDS011;5534;48.784;9.190;2023-08-06T07:07:57;0.90;;;0.57;;
10963;SDS011;5534;48.784;9.190;2023-08-06T07:10:23;1.65;;;0.63;;
10963;SDS011;5534;48.784;9.190;2023-08-06T07:12:48;1.65;;;0.50;;
10963;SDS011;5534;48.784;9.190;2023-08-06T07:15:17;1.17;;;0.63;;
10963;SDS011;5534;48.784;9.190;2023-08-06T07:17:43;1.38;;;0.45;;
10963;SDS011;5534;48.784;9.190;2023-08-06T07:20:09;0.52;;;0.45;;
10963;SDS011;5534;48.784;9.190;2023-08-06T07:22:35;0.50;;;0.43;;
10963;SDS011;5534;48.784;9.190;2023-08-06T07:25:01;1.23;;;0.50;;
10963;SDS011;5534;48.784;9.190;2023-08-06T07:27:27;3.75;;;0.60;;
10963;SDS011;5534;48.784;9.190;2023-08-06T07:29:53;0.50;;;0.40;;
10963;SDS011;5534;48.784;9.190;2023-08-06T07:32:19;0.70;;;0.50;;
10963;SDS011;5534;48.784;9.190;2023-08-06T07:34:45;0.47;;;0.40;;
10963;SDS011;5534;48.784;9.190;2023-08-06T07:37:10;0.40;;;0.40;;
10963;SDS011;5534;48.784;9.190;2023-08-06T07:39:36;1.60;;;0.70;;
10963;SDS011;5534;48.784;9.190;2023-08-06T07:42:04;1.10;;;0.40;;
10963;SDS011;5534;48.784;9.190;2023-08-06T07:44:32;1.05;;;0.50;;
10963;SDS011;5534;48.784;9.190;2023-08-06T07:46:58;0.93;;;0.52;;
10963;SDS011;5534;48.784;9.190;2023-08-06T07:49:23;1.75;;;0.47;;
10963;SDS011;5534;48.784;9.190;2023-08-06T07:51:49;1.98;;;0.73;;
10963;SDS011;5534;48.784;9.190;2023-08-06T07:54:17;0.45;;;0.45;;
10963;SDS011;5534;48.784;9.190;2023-08-06T07:56:42;0.70;;;0.55;;
10963;SDS011;5534;48.784;9.190;2023-08-06T07:59:11;1.00;;;0.32;;
10963;SDS011;5534;48.784;9.190;2023-08-06T08:01:37;0.20;;;0.20;;
10963;SDS011;5534;48.784;9.190;2023-08-06T08:04:03;0.50;;;0.50;;
10963;SDS011;5534;48.784;9.190;2023-08-06T08:06:29;0.30;;;0.30;;
10963;SDS011;5534;48.784;9.190;2023-08-06T08:08:55;0.30;;;0.30;;
10963;SDS011;5534;48.784;9.190;2023-08-06T08:11:21;0.30;;;0.30;;
10963;SDS011;5534;48.784;9.190;2023-08-06T08:13:47;0.90;;;0.38;;
10963;SDS011;5534;48.784;9.190;2023-08-06T08:16:12;0.32;;;0.22;;
10963;SDS011;5534;48.784;9.190;2023-08-06T08:18:38;0.43;;;0.40;;
10963;SDS011;5534;48.784;9.190;2023-08-06T08:21:04;1.30;;;0.30;;
10963;SDS011;5534;48.784;9.190;2023-08-06T08:23:30;0.28;;;0.20;;
10963;SDS011;5534;48.784;9.190;2023-08-06T08:25:56;0.25;;;0.25;;
10963;SDS011;5534;48.784;9.190;2023-08-06T08:28:22;0.20;;;0.20;;
10963;SDS011;5534;48.784;9.190;2023-08-06T08:30:48;0.13;;;0.13;;
10963;SDS011;5534;48.784;9.190;2023-08-06T08:33:13;0.20;;;0.20;;
10963;SDS011;5534;48.784;9.190;2023-08-06T08:35:39;1.02;;;0.20;;
10963;SDS011;5534;48.784;9.190;2023-08-06T08:38:05;0.20;;;0.10;;
10963;SDS011;5534;48.784;9.190;2023-08-06T08:40:32;0.20;;;0.20;;
10963;SDS011;5534;48.784;9.190;2023-08-06T08:42:58;0.40;;;0.30;;
10963;SDS011;5534;48.784;9.190;2023-08-06T08:45:26;0.60;;;0.30;;
10963;SDS011;5534;48.784;9.190;2023-08-06T08:47:53;0.43;;;0.28;;
10963;SDS011;5534;48.784;9.190;2023-08-06T08:50:20;0.47;;;0.20;;
10963;SDS011;5534;48.784;9.190;2023-08-06T08:52:47;0.17;;;0.17;;
10963;SDS011;5534;48.784;9.190;2023-08-06T08:55:15;0.20;;;0.20;;
10963;SDS011;5534;48.784;9.190;2023-08-06T08:57:42;0.20;;;0.20;;
10963;SDS011;5534;48.784;9.190;2023-08-06T09:00:08;0.43;;;0.30;;
10963;SDS011;5534;48.784;9.190;2023-08-06T09:02:34;0.30;;;0.30;;
10963;SDS011;5534;48.784;9.190;2023-08-06T09:05:03;0.47;;;0.38;;
10963;SDS011;5534;48.784;9.190;2023-08-06T09:07:35;0.10;;;0.10;;
10963;SDS011;5534;48.784;9.190;2023-08-06T09:10:10;0.30;;;0.20;;
10963;SDS011;5534;48.784;9.190;2023-08-06T09:12:38;0.22;;;0.22;;
10963;SDS011;5534;48.784;9.190;2023-08-06T09:15:05;0.20;;;0.20;;
10963;SDS011;5534;48.784;9.190;2023-08-06T09:17:31;0.10;;;0.10;;
10963;SDS011;5534;48.784;9.190;2023-08-06T09:19:57;1.40;;;0.22;;
10963;SDS011;5534;48.784;9.190;2023-08-06T09:22:22;0.20;;;0.20;;
10963;SDS011;5534;48.784;9.190;2023-08-06T09:24:48;0.30;;;0.30;;
10963;SDS011;5534;48.784;9.190;2023-08-06T09:27:15;0.13;;;0.13;;
10963;SDS011;5534;48.784;9.190;2023-08-06T09:29:42;0.30;;;0.30;;
10963;SDS011;5534;48.784;9.190;2023-08-06T09:32:10;0.47;;;0.28;;
10963;SDS011;5534;48.784;9.190;2023-08-06T09:34:39;0.30;;;0.30;;
10963;SDS011;5534;48.784;9.190;2023-08-06T09:37:08;1.85;;;0.30;;
10963;SDS011;5534;48.784;9.190;2023-08-06T09:39:35;1.40;;;0.20;;
10963;SDS011;5534;48.784;9.190;2023-08-06T09:42:03;0.63;;;0.30;;
10963;SDS011;5534;48.784;9.190;2023-08-06T09:44:30;0.45;;;0.30;;
10963;SDS011;5534;48.784;9.190;2023-08-06T09:46:58;1.55;;;0.15;;
10963;SDS011;5534;48.784;9.190;2023-08-06T09:49:27;0.40;;;0.30;;
10963;SDS011;5534;48.784;9.190;2023-08-06T09:51:54;0.30;;;0.30;;
10963;SDS011;5534;48.784;9.190;2023-08-06T09:54:25;0.43;;;0.30;;
10963;SDS011;5534;48.784;9.190;2023-08-06T09:56:55;0.30;;;0.25;;
10963;SDS011;5534;48.784;9.190;2023-08-06T09:59:22;0.63;;;0.40;;
10963;SDS011;5534;48.784;9.190;2023-08-06T10:01:49;0.30;;;0.20;;
10963;SDS011;5534;48.784;9.190;2023-08-06T10:04:15;0.30;;;0.30;;
10963;SDS011;5534;48.784;9.190;2023-08-06T10:06:46;0.28;;;0.28;;
10963;SDS011;5534;48.784;9.190;2023-08-06T10:09:13;0.70;;;0.30;;
10963;SDS011;5534;48.784;9.190;2023-08-06T10:11:41;0.10;;;0.10;;
10963;SDS011;5534;48.784;9.190;2023-08-06T10:16:38;0.30;;;0.30;;
10963;SDS011;5534;48.784;9.190;2023-08-06T10:19:07;0.77;;;0.50;;
10963;SDS011;5534;48.784;9.190;2023-08-06T10:21:37;0.20;;;0.20;;
10963;SDS011;5534;48.784;9.190;2023-08-06T10:24:04;0.20;;;0.20;;
10963;SDS011;5534;48.784;9.190;2023-08-06T10:26:34;0.10;;;0.10;;
10963;SDS011;5534;48.784;9.190;2023-08-06T10:29:00;0.20;;;0.20;;
10963;SDS011;5534;48.784;9.190;2023-08-06T10:34:25;0.77;;;0.60;;
10963;SDS011;5534;48.784;9.190;2023-08-06T10:37:10;0.20;;;0.20;;
10963;SDS011;5534;48.784;9.190;2023-08-06T10:39:36;0.20;;;0.20;;
10963;SDS011;5534;48.784;9.190;2023-08-06T10:42:22;0.20;;;0.20;;
10963;SDS011;5534;48.784;9.190;2023-08-06T10:45:11;0.35;;;0.30;;
10963;SDS011;5534;48.784;9.190;2023-08-06T10:47:44;0.63;;;0.40;;
10963;SDS011;5534;48.784;9.190;2023-08-06T10:50:11;2.58;;;0.35;;
10963;SDS011;5534;48.784;9.190;2023-08-06T10:52:39;0.60;;;0.43;;
10963;SDS011;5534;48.784;9.190;2023-08-06T10:55:05;0.40;;;0.40;;
10963;SDS011;5534;48.784;9.190;2023-08-06T10:57:31;0.32;;;0.30;;
10963;SDS011;5534;48.784;9.190;2023-08-06T10:59:57;0.30;;;0.30;;
10963;SDS011;5534;48.784;9.190;2023-08-06T11:02:23;0.40;;;0.40;;
10963;SDS011;5534;48.784;9.190;2023-08-06T11:04:49;0.73;;;0.40;;
10963;SDS011;5534;48.784;9.190;2023-08-06T11:07:15;0.47;;;0.40;;
10963;SDS011;5534;48.784;9.190;2023-08-06T11:09:42;0.10;;;0.10;;
10963;SDS011;5534;48.784;9.190;2023-08-06T11:12:10;0.30;;;0.30;;
10963;SDS011;5534;48.784;9.190;2023-08-06T11:14:36;0.28;;;0.28;;
10963;SDS011;5534;48.784;9.190;2023-08-06T11:17:04;0.40;;;0.38;;
10963;SDS011;5534;48.784;9.190;2023-08-06T11:19:31;0.88;;;0.40;;
10963;SDS011;5534;48.784;9.190;2023-08-06T11:21:57;0.70;;;0.60;;
10963;SDS011;5534;48.784;9.190;2023-08-06T11:24:23;1.20;;;0.73;;
10963;SDS011;5534;48.784;9.190;2023-08-06T11:26:49;1.20;;;0.80;;
10963;SDS011;5534;48.784;9.190;2023-08-06T11:29:15;0.50;;;0.30;;
10963;SDS011;5534;48.784;9.190;2023-08-06T11:31:41;0.52;;;0.40;;
10963;SDS011;5534;48.784;9.190;2023-08-06T11:34:08;1.48;;;0.68;;
10963;SDS011;5534;48.784;9.190;2023-08-06T11:36:36;0.50;;;0.40;;
10963;SDS011;5534;48.784;9.190;2023-08-06T11:39:06;0.55;;;0.55;;
10963;SDS011;5534;48.784;9.190;2023-08-06T11:41:32;0.52;;;0.45;;
10963;SDS011;5534;48.784;9.190;2023-08-06T11:43:58;0.57;;;0.57;;
10963;SDS011;5534;48.784;9.190;2023-08-06T11:46:25;0.77;;;0.55;;
10963;SDS011;5534;48.784;9.190;2023-08-06T11:48:57;0.60;;;0.50;;
10963;SDS011;5534;48.784;9.190;2023-08-06T11:51:27;0.82;;;0.60;;
10963;SDS011;5534;48.784;9.190;2023-08-06T11:53:56;1.00;;;0.65;;
10963;SDS011;5534;48.784;9.190;2023-08-06T11:56:26;1.80;;;0.70;;
10963;SDS011;5534;48.784;9.190;2023-08-06T11:58:53;1.00;;;0.70;;
10963;SDS011;5534;48.784;9.190;2023-08-06T12:01:20;0.77;;;0.60;;
10963;SDS011;5534;48.784;9.190;2023-08-06T12:03:45;0.95;;;0.60;;
10963;SDS011;5534;48.784;9.190;2023-08-06T12:06:11;1.70;;;0.95;;
10963;SDS011;5534;48.784;9.190;2023-08-06T12:08:37;1.05;;;0.60;;
10963;SDS011;5534;48.784;9.190;2023-08-06T12:11:03;1.08;;;0.75;;
10963;SDS011;5534;48.784;9.190;2023-08-06T12:13:29;1.25;;;0.60;;
10963;SDS011;5534;48.784;9.190;2023-08-06T12:15:55;1.88;;;0.70;;
10963;SDS011;5534;48.784;9.190;2023-08-06T12:18:22;1.08;;;0.80;;
10963;SDS011;5534;48.784;9.190;2023-08-06T12:20:49;1.38;;;0.93;;
10963;SDS011;5534;48.784;9.190;2023-08-06T12:23:15;1.10;;;0.77;;
10963;SDS011;5534;48.784;9.190;2023-08-06T12:25:41;2.83;;;1.10;;
10963;SDS011;5534;48.784;9.190;2023-08-06T12:28:07;0.60;;;0.60;;
10963;SDS011;5534;48.784;9.190;2023-08-06T12:30:34;2.88;;;1.88;;
10963;SDS011;5534;48.784;9.190;2023-08-06T12:33:00;1.48;;;0.85;;
10963;SDS011;5534;48.784;9.190;2023-08-06T12:35:25;1.23;;;0.88;;
10963;SDS011;5534;48.784;9.190;2023-08-06T12:37:51;1.38;;;0.80;;
10963;SDS011;5534;48.784;9.190;2023-08-06T12:40:20;0.90;;;0.60;;
10963;SDS011;5534;48.784;9.190;2023-08-06T12:42:46;1.20;;;1.10;;
10963;SDS011;5534;48.784;9.190;2023-08-06T12:45:12;1.13;;;0.77;;
10963;SDS011;5534;48.784;9.190;2023-08-06T12:47:39;2.15;;;0.70;;
10963;SDS011;5534;48.784;9.190;2023-08-06T12:50:05;1.00;;;0.70;;
10963;SDS011;5534;48.784;9.190;2023-08-06T12:52:31;1.50;;;1.20;;
10963;SDS011;5534;48.784;9.190;2023-08-06T12:54:57;0.73;;;0.70;;
10963;SDS011;5534;48.784;9.190;2023-08-06T12:57:22;0.55;;;0.50;;
10963;SDS011;5534;48.784;9.190;2023-08-06T12:59:48;1.23;;;0.65;;
10963;SDS011;5534;48.784;9.190;2023-08-06T13:02:14;1.65;;;0.75;;
10963;SDS011;5534;48.784;9.190;2023-08-06T13:04:40;0.90;;;0.50;;
10963;SDS011;5534;48.784;9.190;2023-08-06T13:07:05;0.47;;;0.40;;
10963;SDS011;5534;48.784;9.190;2023-08-06T13:09:32;1.45;;;0.60;;
10963;SDS011;5534;48.784;9.190;2023-08-06T13:11:58;1.20;;;0.50;;
10963;SDS011;5534;48.784;9.190;2023-08-06T13:14:25;1.63;;;0.70;;
10963;SDS011;5534;48.784;9.190;2023-08-06T13:16:51;0.65;;;0.50;;
10963;SDS011;5534;48.784;9.190;2023-08-06T13:19:17;0.70;;;0.50;;
10963;SDS011;5534;48.784;9.190;2023-08-06T13:24:11;1.77;;;0.75;;
10963;SDS011;5534;48.784;9.190;2023-08-06T13:26:37;1.55;;;0.70;;
10963;SDS011;5534;48.784;9.190;2023-08-06T13:29:03;0.93;;;0.68;;
10963;SDS011;5534;48.784;9.190;2023-08-06T13:31:29;0.60;;;0.50;;
10963;SDS011;5534;48.784;9.190;2023-08-06T13:33:55;0.60;;;0.60;;
10963;SDS011;5534;48.784;9.190;2023-08-06T13:36:23;0.60;;;0.50;;
10963;SDS011;5534;48.784;9.190;2023-08-06T13:38:49;0.47;;;0.45;;
10963;SDS011;5534;48.784;9.190;2023-08-06T13:41:15;2.15;;;0.60;;
10963;SDS011;5534;48.784;9.190;2023-08-06T13:43:41;1.08;;;0.65;;
10963;SDS011;5534;48.784;9.190;2023-08-06T13:46:07;0.70;;;0.60;;
10963;SDS011;5534;48.784;9.190;2023-08-06T13:48:33;0.68;;;0.57;;
10963;SDS011;5534;48.784;9.190;2023-08-06T13:50:58;0.52;;;0.50;;
10963;SDS011;5534;48.784;9.190;2023-08-06T13:53:24;1.20;;;0.55;;
10963;SDS011;5534;48.784;9.190;2023-08-06T13:55:55;0.35;;;0.30;;
10963;SDS011;5534;48.784;9.190;2023-08-06T13:58:22;1.58;;;0.70;;
10963;SDS011;5534;48.784;9.190;2023-08-06T14:00:48;0.70;;;0.40;;
10963;SDS011;5534;48.784;9.190;2023-08-06T14:03:14;0.65;;;0.38;;
10963;SDS011;5534;48.784;9.190;2023-08-06T14:05:39;0.63;;;0.40;;
10963;SDS011;5534;48.784;9.190;2023-08-06T14:08:06;0.50;;;0.40;;
10963;SDS011;5534;48.784;9.190;2023-08-06T14:10:32;1.40;;;0.50;;
10963;SDS011;5534;48.784;9.190;2023-08-06T14:12:58;0.75;;;0.50;;
10963;SDS011;5534;48.784;9.190;2023-08-06T14:15:25;0.82;;;0.80;;
10963;SDS011;5534;48.784;9.190;2023-08-06T14:17:50;0.80;;;0.68;;
10963;SDS011;5534;48.784;9.190;2023-08-06T14:20:16;0.60;;;0.50;;
10963;SDS011;5534;48.784;9.190;2023-08-06T14:22:42;0.60;;;0.50;;
10963;SDS011;5534;48.784;9.190;2023-08-06T14:25:09;0.73;;;0.50;;
10963;SDS011;5534;48.784;9.190;2023-08-06T14:27:35;0.45;;;0.40;;
10963;SDS011;5534;48.784;9.190;2023-08-06T14:30:01;0.47;;;0.45;;
10963;SDS011;5534;48.784;9.190;2023-08-06T14:32:28;0.75;;;0.57;;
10963;SDS011;5534;48.784;9.190;2023-08-06T14:34:54;1.75;;;0.50;;
10963;SDS011;5534;48.784;9.190;2023-08-06T14:37:20;2.47;;;0.50;;
10963;SDS011;5534;48.784;9.190;2023-08-06T14:39:45;0.52;;;0.50;;
10963;SDS011;5534;48.784;9.190;2023-08-06T14:42:11;1.02;;;0.60;;
10963;SDS011;5534;48.784;9.190;2023-08-06T14:44:37;0.75;;;0.38;;
10963;SDS011;5534;48.784;9.190;2023-08-06T14:47:03;1.15;;;0.50;;
10963;SDS011;5534;48.784;9.190;2023-08-06T14:49:29;0.80;;;0.55;;
10963;SDS011;5534;48.784;9.190;2023-08-06T14:51:54;0.60;;;0.60;;
10963;SDS011;5534;48.784;9.190;2023-08-06T14:54:26;0.60;;;0.40;;
10963;SDS011;5534;48.784;9.190;2023-08-06T14:56:52;0.40;;;0.40;;
10963;SDS011;5534;48.784;9.190;2023-08-06T14:59:18;0.75;;;0.47;;
10963;SDS011;5534;48.784;9.190;2023-08-06T15:01:44;0.90;;;0.40;;
10963;SDS011;5534;48.784;9.190;2023-08-06T15:04:10;0.63;;;0.55;;
10963;SDS011;5534;48.784;9.190;2023-08-06T15:06:35;1.60;;;0.50;;
10963;SDS011;5534;48.784;9.190;2023-08-06T15:09:01;0.55;;;0.45;;
10963;SDS011;5534;48.784;9.190;2023-08-06T15:11:27;0.55;;;0.50;;
10963;SDS011;5534;48.784;9.190;2023-08-06T15:13:53;0.60;;;0.60;;